Lyerly, GA (30730)

5:43 PM EST en Diciembre 19, 2014 (GMT -0500)
Fair Oaks/West Rome | Change Station
CLOSE
Current Station
Estación meteorológica personal
Location: Rome, GA
Altura: 794 ft
Estaciones meteorológicas cercanas

Alt 794 ft 34.26 °N, 85.25 °W | Updated 0 second ago

Muy nublado
Muy nublado
46.4 ° F
Sensación térmica 43 ° F
N
6.0
Viento Variable Viento desde Norte
Gusts 6.9 mph

Hoy
Alta -- | Baja -- ° F
--% Posibilidad de precipitaciones
Ayer
Alta -- | Baja -- ° F
Precip. -- pul
7:43 AM 5:34 PM
Creciente menguante, 6% visible
Presión 30.14 pul
Visibilidad 10.0 Millas
Nubes Despejado
Vientos helados 43 ° F
Punto de rocío 33 ° F
Humedad 59%
Precipitaciones 0.00 pul
Espesor de la nieve No disponible.
UV 0 de una escala de 12
Polen .10 de una escala de 12
Calidad del aire No disponible.
Flu Activity No disponible.
METAR KRMG 192153Z AUTO 36005KT 10SM CLR 08/00 A3014 RMK AO2 SLP204 T00830000

More Conditions Fewer Conditions

Presión 30.14 pul
Visibilidad 10.0 Millas
Nubes Despejado
Vientos helados 43 ° F
Punto de rocío 33 ° F
Humedad 59%
Precipitaciones 0.00 pul
Espesor de la nieve No disponible.
UV 0 de una escala de 12
Polen .10 de una escala de 12
Calidad del aire No disponible.
Flu Activity No disponible.
METAR KRMG 192153Z AUTO 36005KT 10SM CLR 08/00 A3014 RMK AO2 SLP204 T00830000

More Conditions Fewer Conditions

10-Day Weather Forecast

Almanac

Astronomía

Dec. 19, 2014 Salida Puesta
Hora real
Crepúsculo civil
Crepúsculo náutico
Crepúsculo astronómico
Luna
Horas de luz
Horas de luz
Tomorrow will be .
, % of the Moon is Illuminated

Extremos de hoy

Máximos del estado Bajos del estado

Community

WunderPhotos

Upload Photos

1,779,071 ¡fotos cargadas!

WunderBlogs® & News

Nearby

Calidad del aire

  Calidad del aire Índice AQ Contaminante
Not available.

Grosos de nieve

Estación Profundido Altura

Actividad de terremotos

Ciudad Distance Mag. Tiempo y dato
Magnitud mínima muestra es 2,5.

Temperaturas de aguas costeras

Lugar Temperatura

Estaciones meteorológicas cercanas